Time;durP1;ratioP1;P1;durP2;ratioP2;P2;SDS_P1;SDS_P2;PMS_P1;PMS_P2;Temp;Humidity;BMP_temperature;BMP_pressure;BME280_temperature;BME280_humidity;BME280_pressure;Samples;Min_cycle;Max_cycle;Signal;HPM_P1;HPM_P2
2022/06/29 00:01:51;;;;;;;;;;;;;;;18.47;53.89;101509.41;5006527;28;20335;-87
2022/06/29 00:04:18;;;;;;;;;;;;;;;18.40;55.03;101511.59;5002697;28;19921;-87
2022/06/29 00:06:44;;;;;;;;;;;;;;;18.40;54.75;101511.59;5005993;28;19925;-87
2022/06/29 00:09:09;;;;;;;;;;;;;;;18.41;54.31;101516.00;5003773;28;19960;-87
2022/06/29 00:11:34;;;;;;;;;;;;;;;18.44;54.91;101506.91;5011381;28;20012;-87
2022/06/29 00:13:59;;;;;;;;;;;;;;;18.38;55.02;101508.16;5005847;28;19966;-87
2022/06/29 00:16:25;;;;;;;;;;;;;;;18.29;55.28;101503.38;5008014;28;19909;-87
2022/06/29 00:18:50;;;;;;;;;;;;;;;18.19;55.65;101511.13;5007800;28;20216;-87
2022/06/29 00:21:15;;;;;;;;;;;;;;;18.09;55.77;101505.47;5002712;28;19983;-87
2022/06/29 00:23:41;;;;;;;;;;;;;;;18.04;56.24;101506.69;5006852;28;19920;-87
2022/06/29 00:26:06;;;;;;;;;;;;;;;18.01;55.64;101501.53;5007309;28;19924;-87
2022/06/29 00:28:31;;;;;;;;;;;;;;;17.99;56.50;101498.06;5008973;28;19913;-87
2022/06/29 00:30:57;;;;;;;;;;;;;;;17.91;56.21;101495.03;4992217;28;19913;-87
2022/06/29 00:33:22;;;;;;;;;;;;;;;17.84;57.40;101489.16;5004726;28;19914;-87
2022/06/29 00:35:47;;;;;;;;;;;;;;;17.75;56.14;101501.28;5010210;28;19924;-87
2022/06/29 00:38:13;;;;;;;;;;;;;;;17.68;56.61;101499.91;5006056;28;20072;-87
2022/06/29 00:40:38;;;;;;;;;;;;;;;17.62;56.15;101497.56;5003841;28;19913;-88
2022/06/29 00:43:03;;;;;;;;;;;;;;;17.65;56.57;101494.72;5009077;28;19999;-87
2022/06/29 00:45:29;;;;;;;;;;;;;;;17.68;55.51;101491.88;5003490;28;20126;-88
2022/06/29 00:47:54;;;;;;;;;;;;;;;17.71;57.01;101485.47;5010350;28;19921;-87
2022/06/29 00:50:20;;;;;;;;;;;;;;;17.73;56.53;101487.16;4992570;28;19929;-88
2022/06/29 00:52:45;;;;;;;;;;;;;;;17.70;56.65;101478.41;5008496;28;19917;-87
2022/06/29 00:55:22;;;;;;;;;;;;;;;17.64;57.02;101485.00;5010357;28;19952;-87
2022/06/29 00:57:48;;;;;;;;;;;;;;;17.54;56.98;101478.47;4989415;28;19917;-87
2022/06/29 01:00:14;;;;;;;;;;;;;;;17.49;57.04;101481.41;5016106;28;20376;-88
2022/06/29 01:02:39;;;;;;;;;;;;;;;17.42;57.15;101472.03;5012111;28;19917;-87
2022/06/29 01:05:05;;;;;;;;;;;;;;;17.40;57.45;101470.41;5009897;28;20464;-88
2022/06/29 01:07:31;;;;;;;;;;;;;;;17.37;57.06;101470.56;5012137;28;20396;-87
2022/06/29 01:09:56;;;;;;;;;;;;;;;17.37;57.82;101465.22;5009758;28;20264;-87
2022/06/29 01:12:22;;;;;;;;;;;;;;;17.30;57.29;101465.59;5005828;28;19921;-87
2022/06/29 01:14:47;;;;;;;;;;;;;;;17.29;56.70;101466.53;5006556;28;19906;-87
2022/06/29 01:17:13;;;;;;;;;;;;;;;17.32;56.88;101474.38;5012157;28;19996;-87
2022/06/29 01:19:39;;;;;;;;;;;;;;;17.30;57.58;101470.09;5012705;28;19923;-86
2022/06/29 01:22:08;;;;;;;;;;;;;;;17.31;56.61;101472.66;5003220;28;19917;-87
2022/06/29 01:24:33;;;;;;;;;;;;;;;17.35;56.28;101470.69;5010356;28;20329;-87
2022/06/29 01:26:58;;;;;;;;;;;;;;;17.40;56.46;101465.06;5007798;28;19917;-87
2022/06/29 01:29:23;;;;;;;;;;;;;;;17.39;56.19;101465.97;5004214;28;19921;-86
2022/06/29 01:31:53;;;;;;;;;;;;;;;17.44;57.49;101463.91;5008213;28;20004;-87
2022/06/29 01:34:18;;;;;;;;;;;;;;;17.40;57.58;101468.59;5008174;28;19913;-88
2022/06/29 01:36:43;;;;;;;;;;;;;;;17.34;57.44;101463.59;5005110;28;20327;-88
2022/06/29 01:39:09;;;;;;;;;;;;;;;17.34;56.77;101455.56;5015398;28;19921;-87
2022/06/29 01:41:34;;;;;;;;;;;;;;;17.36;56.50;101455.50;5004936;28;19964;-87
2022/06/29 01:43:59;;;;;;;;;;;;;;;17.38;57.25;101459.78;5013050;28;19915;-87
2022/06/29 01:46:25;;;;;;;;;;;;;;;17.34;57.38;101453.75;5014145;28;19918;-87
2022/06/29 01:48:50;;;;;;;;;;;;;;;17.25;58.13;101450.75;5007512;28;20391;-87
2022/06/29 01:51:15;;;;;;;;;;;;;;;17.20;58.43;101452.84;4989523;28;20385;-87
2022/06/29 01:53:40;;;;;;;;;;;;;;;17.15;58.27;101455.78;5000150;28;19990;-87
2022/06/29 01:56:06;;;;;;;;;;;;;;;17.08;58.45;101443.75;5005574;28;19924;-87
2022/06/29 01:58:32;;;;;;;;;;;;;;;17.03;58.48;101444.00;5004944;28;19919;-87
2022/06/29 02:00:57;;;;;;;;;;;;;;;17.01;58.85;101442.34;5008802;28;20280;-87
2022/06/29 02:03:22;;;;;;;;;;;;;;;16.98;58.63;101440.75;5003629;28;19925;-87
2022/06/29 02:05:47;;;;;;;;;;;;;;;16.95;59.06;101445.38;5009334;28;19929;-87
2022/06/29 02:08:13;;;;;;;;;;;;;;;16.92;59.18;101435.72;5004514;28;19920;-87
2022/06/29 02:10:38;;;;;;;;;;;;;;;16.90;59.03;101439.44;5006326;28;20281;-87
2022/06/29 02:13:03;;;;;;;;;;;;;;;16.85;59.23;101441.53;5007648;28;20361;-87
2022/06/29 02:15:28;;;;;;;;;;;;;;;16.79;59.39;101438.25;5015898;28;19917;-87
2022/06/29 02:17:53;;;;;;;;;;;;;;;16.72;59.90;101438.69;5012413;28;20319;-87
2022/06/29 02:20:19;;;;;;;;;;;;;;;16.68;60.80;101443.28;5004932;28;19917;-87
2022/06/29 02:22:44;;;;;;;;;;;;;;;16.66;59.82;101439.84;5001114;28;19920;-87
2022/06/29 02:25:10;;;;;;;;;;;;;;;16.68;59.71;101439.75;5011390;28;20408;-87
2022/06/29 02:27:44;;;;;;;;;;;;;;;16.67;58.99;101436.22;5009617;28;19921;-87
2022/06/29 02:30:10;;;;;;;;;;;;;;;16.65;59.98;101438.13;5002876;28;19922;-87
2022/06/29 02:35:19;;;;;;;;;;;;;;;16.65;60.40;101446.16;5006701;28;19921;-87
2022/06/29 02:37:44;;;;;;;;;;;;;;;16.69;60.07;101438.81;5022671;28;19913;-87
2022/06/29 02:40:10;;;;;;;;;;;;;;;16.76;59.25;101437.56;5013840;28;19944;-87
2022/06/29 02:42:35;;;;;;;;;;;;;;;16.83;59.02;101446.94;5009460;28;20221;-87
2022/06/29 02:45:00;;;;;;;;;;;;;;;16.89;59.16;101435.91;5015735;28;20308;-87
2022/06/29 02:47:27;;;;;;;;;;;;;;;16.92;58.72;101429.53;5015187;28;20281;-87
2022/06/29 02:49:52;;;;;;;;;;;;;;;16.94;58.66;101433.00;5004449;28;19956;-87
2022/06/29 02:52:18;;;;;;;;;;;;;;;16.99;60.02;101428.25;5017504;28;19964;-87
2022/06/29 02:54:43;;;;;;;;;;;;;;;16.99;60.17;101428.25;5018283;28;19955;-87
2022/06/29 02:57:08;;;;;;;;;;;;;;;16.95;59.71;101422.22;5011192;28;20392;-87
2022/06/29 02:59:33;;;;;;;;;;;;;;;16.93;59.36;101426.78;5011401;28;19948;-88
2022/06/29 03:01:59;;;;;;;;;;;;;;;16.93;58.07;101423.25;5014193;28;19990;-87
2022/06/29 03:04:24;;;;;;;;;;;;;;;16.89;59.93;101417.22;5007325;28;20030;-87
2022/06/29 03:06:49;;;;;;;;;;;;;;;16.80;60.40;101415.06;5016875;28;19928;-87
2022/06/29 03:09:14;;;;;;;;;;;;;;;16.76;59.90;101417.06;5010870;28;19914;-87
2022/06/29 03:11:39;;;;;;;;;;;;;;;16.75;59.34;101419.81;5011575;28;20478;-87
2022/06/29 03:14:05;;;;;;;;;;;;;;;16.75;58.55;101419.81;5011708;28;20388;-87
2022/06/29 03:16:30;;;;;;;;;;;;;;;16.74;60.41;101415.41;5004796;28;19925;-87
2022/06/29 03:18:55;;;;;;;;;;;;;;;16.67;60.68;101408.69;5009948;28;20349;-87
2022/06/29 03:21:20;;;;;;;;;;;;;;;16.59;59.45;101404.63;5010155;28;19910;-87
2022/06/29 03:23:46;;;;;;;;;;;;;;;16.57;59.63;101403.00;5001467;28;19921;-87
2022/06/29 03:26:11;;;;;;;;;;;;;;;16.56;60.18;101403.94;5010537;28;19922;-87
2022/06/29 03:28:37;;;;;;;;;;;;;;;16.53;60.29;101398.78;5008276;28;20249;-87
2022/06/29 03:31:02;;;;;;;;;;;;;;;16.56;59.71;101399.47;5009793;28;19916;-87
2022/06/29 03:33:27;;;;;;;;;;;;;;;16.55;58.95;101389.75;4995728;28;19960;-87
2022/06/29 03:35:53;;;;;;;;;;;;;;;16.57;58.92;101390.50;5002545;28;19967;-87
2022/06/29 03:38:18;;;;;;;;;;;;;;;16.58;60.09;101389.56;5008765;28;19953;-87
2022/06/29 03:40:43;;;;;;;;;;;;;;;16.57;60.69;101374.50;4991509;28;20383;-87
2022/06/29 03:43:08;;;;;;;;;;;;;;;16.53;60.95;101378.28;5008217;28;20573;-87
2022/06/29 03:45:34;;;;;;;;;;;;;;;16.44;60.12;101383.28;5010178;28;20340;-87
2022/06/29 03:47:59;;;;;;;;;;;;;;;16.45;59.90;101379.66;5008208;28;19913;-87
2022/06/29 03:50:24;;;;;;;;;;;;;;;16.47;60.63;101377.78;5009842;28;19975;-87
2022/06/29 03:52:49;;;;;;;;;;;;;;;16.43;61.19;101373.56;5009248;28;20630;-87
2022/06/29 03:55:15;;;;;;;;;;;;;;;16.40;60.99;101377.25;5006635;28;19960;-87
2022/06/29 03:57:40;;;;;;;;;;;;;;;16.38;60.65;101372.94;5007499;28;20364;-87
2022/06/29 04:00:05;;;;;;;;;;;;;;;16.34;61.18;101369.59;5006584;28;19913;-87
2022/06/29 04:02:31;;;;;;;;;;;;;;;16.32;61.12;101368.81;5006135;28;20208;-87
2022/06/29 04:04:56;;;;;;;;;;;;;;;16.30;61.51;101363.56;5010841;28;20254;-87
2022/06/29 04:07:21;;;;;;;;;;;;;;;16.30;60.67;101366.22;5002060;28;19925;-87
2022/06/29 04:09:46;;;;;;;;;;;;;;;16.27;60.40;101366.41;5013607;28;19971;-86
2022/06/29 04:12:11;;;;;;;;;;;;;;;16.23;61.43;101370.19;5009882;28;19916;-87
2022/06/29 04:14:37;;;;;;;;;;;;;;;16.23;61.65;101370.19;5008497;28;20011;-87
2022/06/29 04:17:02;;;;;;;;;;;;;;;16.23;60.54;101372.84;5009686;28;19917;-87
2022/06/29 04:19:27;;;;;;;;;;;;;;;16.29;60.30;101375.19;5008838;28;19921;-87
2022/06/29 04:21:54;;;;;;;;;;;;;;;16.34;61.48;101374.91;5008341;28;19917;-87
2022/06/29 04:24:20;;;;;;;;;;;;;;;16.40;61.49;101377.25;5006498;28;19920;-87
2022/06/29 04:26:45;;;;;;;;;;;;;;;16.40;61.78;101374.56;5008189;28;19917;-86
2022/06/29 04:29:11;;;;;;;;;;;;;;;16.36;61.86;101372.16;5007818;28;19995;-87
2022/06/29 04:31:36;;;;;;;;;;;;;;;16.32;62.46;101375.03;5009377;28;19972;-86
2022/06/29 04:34:01;;;;;;;;;;;;;;;16.32;62.06;101363.50;5004995;28;20028;-87
2022/06/29 04:36:27;;;;;;;;;;;;;;;16.35;62.48;101354.44;5010561;28;20281;-87
2022/06/29 04:38:52;;;;;;;;;;;;;;;16.37;62.72;101363.19;5007854;28;20230;-87
2022/06/29 04:41:19;;;;;;;;;;;;;;;16.38;63.04;101356.94;5009188;28;19968;-87
2022/06/29 04:43:44;;;;;;;;;;;;;;;16.36;62.57;101370.34;5007562;28;19924;-87
2022/06/29 04:46:19;;;;;;;;;;;;;;;16.38;64.20;101371.13;5016048;28;19917;-87
2022/06/29 04:48:44;;;;;;;;;;;;;;;16.46;62.39;101376.03;5013431;28;19920;-87
2022/06/29 04:51:10;;;;;;;;;;;;;;;16.56;62.32;101363.91;5010955;28;19913;-86
2022/06/29 04:53:35;;;;;;;;;;;;;;;16.64;63.13;101364.31;5006781;28;19913;-90
2022/06/29 04:56:01;;;;;;;;;;;;;;;16.68;61.57;101373.88;5017280;28;19928;-89
2022/06/29 04:58:26;;;;;;;;;;;;;;;16.78;62.05;101368.88;4995176;28;19927;-89
2022/06/29 05:00:51;;;;;;;;;;;;;;;16.83;61.11;101362.38;5008311;28;19918;-88
2022/06/29 05:03:16;;;;;;;;;;;;;;;16.91;61.00;101366.38;5005782;28;19918;-89
2022/06/29 05:05:42;;;;;;;;;;;;;;;16.95;62.14;101359.91;5011266;28;19922;-88
2022/06/29 05:08:08;;;;;;;;;;;;;;;16.96;62.13;101362.47;5015780;28;19968;-88
2022/06/29 05:10:33;;;;;;;;;;;;;;;17.00;61.66;101364.03;5008644;28;19964;-89
2022/06/29 05:12:58;;;;;;;;;;;;;;;17.02;61.17;101361.25;5013783;28;19913;-88
2022/06/29 05:15:24;;;;;;;;;;;;;;;17.07;62.33;101361.88;5006720;28;20320;-89
2022/06/29 05:17:49;;;;;;;;;;;;;;;17.11;62.23;101354.50;5006039;28;19913;-88
2022/06/29 05:20:14;;;;;;;;;;;;;;;17.13;62.64;101350.81;5005816;28;19921;-88
2022/06/29 05:22:40;;;;;;;;;;;;;;;17.12;60.96;101354.44;5005980;28;19920;-88
2022/06/29 05:25:05;;;;;;;;;;;;;;;17.17;61.34;101355.03;5004080;28;19918;-88
2022/06/29 05:27:30;;;;;;;;;;;;;;;17.24;62.88;101353.69;5007499;28;19924;-88
2022/06/29 05:29:56;;;;;;;;;;;;;;;17.27;61.82;101350.00;5006815;28;20579;-89
2022/06/29 05:32:21;;;;;;;;;;;;;;;17.31;60.92;101351.53;5005150;28;20280;-89
2022/06/29 05:34:46;;;;;;;;;;;;;;;17.34;61.59;101337.97;5005128;28;19919;-89
2022/06/29 05:37:11;;;;;;;;;;;;;;;17.43;61.32;101344.56;5009113;28;19921;-88
2022/06/29 05:39:37;;;;;;;;;;;;;;;17.53;62.59;101345.72;5008734;28;19922;-89
2022/06/29 05:42:02;;;;;;;;;;;;;;;17.54;61.87;101350.13;5005594;28;19992;-89
2022/06/29 05:44:27;;;;;;;;;;;;;;;17.59;62.03;101340.88;5010398;28;20004;-88
2022/06/29 05:46:53;;;;;;;;;;;;;;;17.66;61.84;101346.69;4995075;28;19917;-89
2022/06/29 05:49:18;;;;;;;;;;;;;;;17.71;59.47;101347.25;5003720;28;20339;-89
2022/06/29 05:51:43;;;;;;;;;;;;;;;17.77;61.71;101343.41;5007226;28;20416;-89
2022/06/29 05:54:08;;;;;;;;;;;;;;;17.84;61.75;101337.56;5006077;28;19921;-89
2022/06/29 05:56:33;;;;;;;;;;;;;;;17.93;61.86;101338.81;5003414;28;19920;-89
2022/06/29 05:58:59;;;;;;;;;;;;;;;18.02;59.69;101343.56;4999604;28;19918;-89
2022/06/29 06:01:24;;;;;;;;;;;;;;;18.15;61.53;101343.66;5009563;28;19917;-89
2022/06/29 06:03:49;;;;;;;;;;;;;;;18.27;61.80;101339.31;5011427;28;19963;-90
2022/06/29 06:06:14;;;;;;;;;;;;;;;18.35;60.91;101343.22;5017369;28;20089;-88
2022/06/29 06:08:40;;;;;;;;;;;;;;;18.47;60.44;101343.41;5010682;28;19947;-89
2022/06/29 06:11:05;;;;;;;;;;;;;;;18.57;59.26;101345.38;5010137;28;19921;-89
2022/06/29 06:13:30;;;;;;;;;;;;;;;18.70;59.88;101345.47;5005808;28;19924;-89
2022/06/29 06:15:55;;;;;;;;;;;;;;;18.83;61.79;101345.50;5014265;28;20013;-89
2022/06/29 06:18:21;;;;;;;;;;;;;;;19.11;59.10;101341.81;5010064;28;20420;-89
2022/06/29 06:20:46;;;;;;;;;;;;;;;19.50;59.92;101340.91;5012053;28;19921;-89
2022/06/29 06:23:12;;;;;;;;;;;;;;;19.87;58.51;101339.22;5012707;28;19923;-89
2022/06/29 06:25:37;;;;;;;;;;;;;;;20.14;58.03;101343.53;5013644;28;20052;-89
2022/06/29 06:28:02;;;;;;;;;;;;;;;20.39;56.10;101345.31;5014677;28;20008;-88
2022/06/29 06:30:28;;;;;;;;;;;;;;;20.53;56.87;101338.97;5015213;28;19909;-88
2022/06/29 06:32:53;;;;;;;;;;;;;;;20.78;56.92;101344.19;5013080;28;19917;-89
2022/06/29 06:35:21;;;;;;;;;;;;;;;20.94;56.64;101335.84;5023318;28;19956;-88
2022/06/29 06:37:48;;;;;;;;;;;;;;;20.97;57.74;101346.34;5016324;28;20015;-88
2022/06/29 06:42:58;;;;;;;;;;;;;;;21.06;56.74;101347.50;5013422;28;19966;-89
2022/06/29 06:45:24;;;;;;;;;;;;;;;21.08;57.80;101337.50;5025205;28;20332;-88
2022/06/29 06:47:49;;;;;;;;;;;;;;;21.18;57.05;101338.50;5019508;28;20045;-89
2022/06/29 06:50:15;;;;;;;;;;;;;;;21.30;55.91;101344.75;5015978;28;19921;-89
2022/06/29 06:52:41;;;;;;;;;;;;;;;21.47;55.72;101338.97;5012059;28;20283;-88
2022/06/29 06:55:06;;;;;;;;;;;;;;;21.55;55.67;101341.06;5014112;28;20369;-88
2022/06/29 06:57:31;;;;;;;;;;;;;;;21.88;55.30;101337.53;5013973;28;19913;-91
2022/06/29 06:59:57;;;;;;;;;;;;;;;21.98;54.13;101341.19;5001380;28;19925;-88
2022/06/29 07:02:22;;;;;;;;;;;;;;;22.00;54.85;101341.06;5012079;28;20003;-89
2022/06/29 07:04:47;;;;;;;;;;;;;;;22.03;54.55;101341.69;5012215;28;20315;-88
2022/06/29 07:07:15;;;;;;;;;;;;;;;22.00;53.74;101338.38;5009740;28;19917;-88
2022/06/29 07:09:41;;;;;;;;;;;;;;;21.94;53.17;101347.81;5011021;28;20007;-88
2022/06/29 07:12:06;;;;;;;;;;;;;;;21.87;54.34;101347.44;5011216;28;20004;-88
2022/06/29 07:14:32;;;;;;;;;;;;;;;21.92;54.36;101347.06;5018090;28;20008;-88
2022/06/29 07:16:57;;;;;;;;;;;;;;;21.89;54.64;101344.63;5010846;28;19968;-88
2022/06/29 07:19:22;;;;;;;;;;;;;;;21.89;54.85;101345.47;5013346;28;19924;-88
2022/06/29 07:21:48;;;;;;;;;;;;;;;21.94;54.65;101342.41;5013369;28;19922;-88
2022/06/29 07:24:13;;;;;;;;;;;;;;;22.15;53.93;101348.81;5011130;28;19913;-89
2022/06/29 07:26:38;;;;;;;;;;;;;;;22.37;53.68;101342.50;5011184;28;19922;-88
2022/06/29 07:29:03;;;;;;;;;;;;;;;22.58;53.11;101345.28;5010711;28;19921;-89
2022/06/29 07:31:29;;;;;;;;;;;;;;;22.66;52.83;101341.94;5007991;28;20005;-89
2022/06/29 07:33:54;;;;;;;;;;;;;;;22.74;52.32;101338.63;5012353;28;19924;-88
2022/06/29 07:36:19;;;;;;;;;;;;;;;23.29;51.71;101340.22;5024432;28;19912;-88
2022/06/29 07:38:44;;;;;;;;;;;;;;;23.94;49.85;101340.91;5012171;28;19924;-87
2022/06/29 07:41:09;;;;;;;;;;;;;;;24.48;48.44;101341.50;5018036;28;20258;-87
2022/06/29 07:43:35;;;;;;;;;;;;;;;25.11;47.63;101337.44;5015306;28;19940;-87
2022/06/29 07:46:00;;;;;;;;;;;;;;;25.59;45.85;101330.22;5008135;28;19944;-87
2022/06/29 07:48:25;;;;;;;;;;;;;;;26.24;44.02;101331.09;5002083;28;20224;-87
2022/06/29 07:50:51;;;;;;;;;;;;;;;26.67;44.91;101330.44;5006324;28;20377;-88
2022/06/29 07:53:16;;;;;;;;;;;;;;;26.88;43.95;101324.69;5008271;28;20398;-88
2022/06/29 07:55:44;;;;;;;;;;;;;;;27.32;43.44;101332.84;5008590;28;20320;-88
2022/06/29 07:58:10;;;;;;;;;;;;;;;27.60;43.60;101329.97;5006733;28;20396;-88
2022/06/29 08:00:36;;;;;;;;;;;;;;;28.04;43.14;101332.63;5004703;28;20018;-89
2022/06/29 08:03:01;;;;;;;;;;;;;;;28.40;42.62;101325.16;5002490;28;19956;-89
2022/06/29 08:05:26;;;;;;;;;;;;;;;28.79;41.76;101324.53;5009552;28;19983;-89
2022/06/29 08:07:52;;;;;;;;;;;;;;;28.81;39.55;101323.31;5009797;28;19914;-89
2022/06/29 08:10:18;;;;;;;;;;;;;;;28.75;41.48;101318.56;5006896;28;19921;-88
2022/06/29 08:12:43;;;;;;;;;;;;;;;28.61;39.90;101317.34;5013079;28;19913;-91
2022/06/29 08:15:09;;;;;;;;;;;;;;;28.87;40.52;101319.09;5010705;28;19921;-91
2022/06/29 08:17:34;;;;;;;;;;;;;;;29.24;40.13;101324.03;5011230;28;20262;-90
2022/06/29 08:20:00;;;;;;;;;;;;;;;29.65;40.03;101319.38;5011860;28;19929;-90
2022/06/29 08:22:25;;;;;;;;;;;;;;;29.34;40.13;101321.13;5010697;28;19988;-91
2022/06/29 08:24:50;;;;;;;;;;;;;;;28.55;41.03;101319.91;5008880;28;19920;-90
2022/06/29 08:27:19;;;;;;;;;;;;;;;28.81;40.64;101317.88;5009578;28;19917;-90
2022/06/29 08:29:44;;;;;;;;;;;;;;;29.81;39.92;101310.31;5012466;28;20242;-92
2022/06/29 08:32:10;;;;;;;;;;;;;;;30.48;37.17;101316.13;5008767;28;20380;-90
2022/06/29 08:34:41;;;;;;;;;;;;;;;30.90;38.28;101317.56;5009610;28;19913;-91
2022/06/29 08:37:06;;;;;;;;;;;;;;;31.10;37.59;101319.78;5011644;28;20284;-92
2022/06/29 08:39:32;;;;;;;;;;;;;;;31.28;37.59;101306.66;5007231;28;19913;-91
2022/06/29 08:42:00;;;;;;;;;;;;;;;31.44;37.16;101311.97;5014459;28;19913;-90
2022/06/29 08:44:25;;;;;;;;;;;;;;;31.35;36.67;101309.50;5024244;28;19913;-91
2022/06/29 08:46:50;;;;;;;;;;;;;;;31.81;36.46;101309.34;5016139;28;20256;-92
2022/06/29 08:49:16;;;;;;;;;;;;;;;31.92;36.14;101311.63;5010889;28;20353;-91
2022/06/29 08:51:43;;;;;;;;;;;;;;;31.74;36.04;101303.78;5015097;28;19941;-91
2022/06/29 08:54:09;;;;;;;;;;;;;;;31.60;33.97;101305.47;5006354;28;19964;-92
2022/06/29 08:56:34;;;;;;;;;;;;;;;31.68;36.04;101305.38;5008750;28;19963;-92
2022/06/29 08:59:01;;;;;;;;;;;;;;;31.68;35.96;101310.84;5011199;28;19949;-91
2022/06/29 09:01:28;;;;;;;;;;;;;;;31.65;31.99;101308.47;5008995;28;20364;-91
2022/06/29 09:03:54;;;;;;;;;;;;;;;31.60;34.88;101301.88;5010772;28;20036;-92
2022/06/29 09:06:19;;;;;;;;;;;;;;;31.85;35.48;101305.19;5018726;28;19924;-92
2022/06/29 09:08:44;;;;;;;;;;;;;;;31.40;32.47;101305.19;5012169;28;19916;-92
2022/06/29 09:11:23;;;;;;;;;;;;;;;30.35;35.83;101304.94;5006671;28;20340;-91
2022/06/29 09:14:07;;;;;;;;;;;;;;;29.88;38.49;101308.56;5011134;28;19953;-91
2022/06/29 09:16:49;;;;;;;;;;;;;;;29.43;39.48;101307.31;5014655;28;19913;-91
2022/06/29 09:19:17;;;;;;;;;;;;;;;29.14;38.92;101307.84;5013996;28;19960;-91
2022/06/29 09:21:46;;;;;;;;;;;;;;;29.20;40.20;101309.06;5008667;28;20333;-91
2022/06/29 09:24:20;;;;;;;;;;;;;;;29.35;39.23;101304.59;5011004;28;19975;-91
2022/06/29 09:26:49;;;;;;;;;;;;;;;30.03;38.00;101300.50;5009366;28;19991;-90
2022/06/29 09:29:19;;;;;;;;;;;;;;;29.86;37.74;101307.91;5007390;28;19929;-91
2022/06/29 09:31:44;;;;;;;;;;;;;;;29.85;36.97;101305.38;5003166;28;19918;-91
2022/06/29 09:34:19;;;;;;;;;;;;;;;29.97;33.07;101303.94;5007982;28;19960;-91
2022/06/29 09:36:58;;;;;;;;;;;;;;;30.08;37.70;101308.13;4999870;28;19920;-91
2022/06/29 09:39:31;;;;;;;;;;;;;;;29.83;36.16;101304.66;5008245;28;19913;-90
2022/06/29 09:42:00;;;;;;;;;;;;;;;29.64;37.36;101303.19;5003459;28;19917;-90
2022/06/29 09:44:25;;;;;;;;;;;;;;;29.99;37.59;101299.16;5007765;28;20372;-90
2022/06/29 09:46:55;;;;;;;;;;;;;;;30.26;37.05;101300.56;5006945;28;19965;-91
2022/06/29 09:49:24;;;;;;;;;;;;;;;30.47;34.04;101300.78;5007921;28;19913;-92
2022/06/29 09:51:51;;;;;;;;;;;;;;;30.66;36.71;101304.06;5007868;28;19913;-91
2022/06/29 09:54:17;;;;;;;;;;;;;;;30.89;37.53;101310.41;5007647;28;19913;-91
2022/06/29 09:56:46;;;;;;;;;;;;;;;31.40;36.28;101296.97;5008826;28;19991;-91
2022/06/29 09:59:13;;;;;;;;;;;;;;;31.61;34.51;101300.84;5010900;28;19917;-90
2022/06/29 10:04:25;;;;;;;;;;;;;;;32.06;33.66;101298.97;5004962;28;20257;-91
2022/06/29 10:06:51;;;;;;;;;;;;;;;31.99;32.48;101293.41;5006855;28;20317;-90
2022/06/29 10:09:17;;;;;;;;;;;;;;;32.00;33.27;101287.75;5010508;28;19913;-91
2022/06/29 10:14:45;;;;;;;;;;;;;;;31.59;33.98;101290.09;5006742;28;19920;-90
2022/06/29 10:17:10;;;;;;;;;;;;;;;31.63;33.93;101299.63;5004796;28;20292;-90
2022/06/29 10:19:41;;;;;;;;;;;;;;;32.12;32.29;101290.81;5008701;28;19909;-91
2022/06/29 10:22:07;;;;;;;;;;;;;;;31.95;31.86;101284.75;5006741;28;20210;-91
2022/06/29 10:24:32;;;;;;;;;;;;;;;32.37;32.09;101279.56;5010380;28;19923;-90
2022/06/29 10:27:04;;;;;;;;;;;;;;;32.49;31.32;101283.47;5010542;28;20292;-91
2022/06/29 10:29:29;;;;;;;;;;;;;;;32.68;30.40;101287.47;5002959;28;19924;-90
2022/06/29 10:31:56;;;;;;;;;;;;;;;33.00;30.57;101275.97;5010408;28;19917;-91
2022/06/29 10:34:31;;;;;;;;;;;;;;;33.03;30.29;101280.22;5011292;28;19952;-91
2022/06/29 10:37:02;;;;;;;;;;;;;;;33.03;29.40;101272.00;5006806;28;19913;-91
2022/06/29 10:39:27;;;;;;;;;;;;;;;32.77;28.93;101275.31;5004964;28;20361;-91
2022/06/29 10:45:06;;;;;;;;;;;;;;;32.54;30.42;101271.94;5004689;28;19919;-91
2022/06/29 10:47:32;;;;;;;;;;;;;;;32.65;30.10;101263.22;4993991;28;19924;-91
2022/06/29 10:52:44;;;;;;;;;;;;;;;33.54;29.29;101257.19;5003648;28;20299;-89
2022/06/29 10:55:11;;;;;;;;;;;;;;;33.81;26.59;101264.50;5006229;28;19913;-91
2022/06/29 10:57:37;;;;;;;;;;;;;;;33.57;27.31;101254.03;5011271;28;20376;-90
2022/06/29 11:00:06;;;;;;;;;;;;;;;33.43;28.32;101248.47;5010858;28;20000;-90
2022/06/29 11:02:31;;;;;;;;;;;;;;;33.58;28.38;101245.63;5008020;28;20339;-87
2022/06/29 11:04:57;;;;;;;;;;;;;;;33.65;28.13;101249.22;5014782;28;19936;-90
2022/06/29 11:12:51;;;;;;;;;;;;;;;33.44;29.50;101241.13;5013607;28;19931;-90
2022/06/29 11:18:13;;;;;;;;;;;;;;;33.93;29.21;101240.06;5011697;28;19967;-87
2022/06/29 11:20:39;;;;;;;;;;;;;;;34.07;27.99;101239.09;5004133;28;19918;-90
2022/06/29 11:23:12;;;;;;;;;;;;;;;34.14;28.28;101248.19;5013311;28;19917;-90
2022/06/29 11:25:38;;;;;;;;;;;;;;;33.90;26.67;101240.47;5007661;28;20286;-87
2022/06/29 11:28:04;;;;;;;;;;;;;;;33.35;28.07;101236.81;5008100;28;19923;-86
2022/06/29 11:30:29;;;;;;;;;;;;;;;33.30;28.92;101236.56;5007273;28;20011;-86
2022/06/29 11:32:54;;;;;;;;;;;;;;;33.11;29.77;101230.75;5010111;28;20035;-87
2022/06/29 11:35:23;;;;;;;;;;;;;;;33.19;29.41;101237.97;5004502;28;19948;-87
2022/06/29 11:37:51;;;;;;;;;;;;;;;33.35;28.83;101234.91;5009822;28;19913;-86
2022/06/29 11:40:35;;;;;;;;;;;;;;;33.20;28.22;101228.69;5006150;28;20014;-86
2022/06/29 11:43:10;;;;;;;;;;;;;;;33.34;29.19;101227.72;5012178;28;19971;-87
2022/06/29 11:45:36;;;;;;;;;;;;;;;33.70;28.55;101222.03;5009094;28;19978;-87
2022/06/29 11:48:09;;;;;;;;;;;;;;;33.22;28.62;101221.13;5007344;28;20019;-87
2022/06/29 11:50:40;;;;;;;;;;;;;;;32.98;29.28;101220.56;5008699;28;19913;-87
2022/06/29 11:53:06;;;;;;;;;;;;;;;32.82;28.33;101220.81;5006807;28;19967;-85
2022/06/29 11:55:42;;;;;;;;;;;;;;;32.62;29.82;101214.31;5011632;28;20368;-86
2022/06/29 11:58:14;;;;;;;;;;;;;;;32.41;28.81;101218.78;5011246;28;19914;-87
2022/06/29 12:00:39;;;;;;;;;;;;;;;32.63;30.05;101210.53;4990209;28;19971;-87
2022/06/29 12:03:05;;;;;;;;;;;;;;;32.64;30.13;101217.69;5007621;28;19917;-87
2022/06/29 12:05:30;;;;;;;;;;;;;;;32.69;30.37;101207.88;5011439;28;20391;-86
2022/06/29 12:07:55;;;;;;;;;;;;;;;32.72;29.48;101207.47;5008851;28;20655;-87
2022/06/29 12:10:21;;;;;;;;;;;;;;;32.76;29.22;101206.00;4999583;28;19920;-87
2022/06/29 12:12:46;;;;;;;;;;;;;;;32.82;29.14;101204.38;5005709;28;19920;-87
2022/06/29 12:15:13;;;;;;;;;;;;;;;32.79;28.94;101198.47;5008480;28;20562;-86
2022/06/29 12:17:38;;;;;;;;;;;;;;;32.49;28.63;101204.94;5002600;28;19913;-86
2022/06/29 12:20:04;;;;;;;;;;;;;;;32.06;28.20;101197.75;5007628;28;19913;-87
2022/06/29 12:22:29;;;;;;;;;;;;;;;32.11;29.82;101193.38;4989631;28;20003;-86
2022/06/29 12:24:54;;;;;;;;;;;;;;;31.88;30.05;101199.03;4998775;28;19913;-86
2022/06/29 12:27:20;;;;;;;;;;;;;;;31.89;29.52;101195.25;5008512;28;19968;-87
2022/06/29 12:29:45;;;;;;;;;;;;;;;32.25;29.54;101197.09;5004120;28;20193;-86
2022/06/29 12:32:10;;;;;;;;;;;;;;;32.91;29.25;101196.88;5003827;28;19917;-87
2022/06/29 12:34:35;;;;;;;;;;;;;;;33.33;28.31;101187.66;5003454;28;20344;-86
2022/06/29 12:37:03;;;;;;;;;;;;;;;33.12;26.59;101187.78;5013567;28;19936;-86
2022/06/29 12:39:28;;;;;;;;;;;;;;;32.95;28.35;101188.06;5007548;28;20564;-87
2022/06/29 12:41:54;;;;;;;;;;;;;;;33.37;27.61;101183.47;5005503;28;19916;-86
2022/06/29 12:44:19;;;;;;;;;;;;;;;33.73;27.33;101180.50;5004311;28;20236;-86
2022/06/29 12:46:44;;;;;;;;;;;;;;;34.05;27.03;101186.31;5006200;28;20381;-86
2022/06/29 12:49:10;;;;;;;;;;;;;;;34.25;26.54;101192.69;5003154;28;19917;-86
2022/06/29 12:51:35;;;;;;;;;;;;;;;34.32;27.89;101183.59;5005364;28;19920;-86
2022/06/29 12:54:00;;;;;;;;;;;;;;;34.21;27.50;101185.06;5004532;28;20250;-86
2022/06/29 12:56:26;;;;;;;;;;;;;;;33.79;26.12;101184.31;5010522;28;20253;-86